sensor_id;sensor_type;location;lat;lon;timestamp;temperature;humidity
28177;DHT22;15461;41.652;9.378;2024-03-22T00:00:06;13.90;99.90
28177;DHT22;15461;41.652;9.378;2024-03-22T00:02:39;13.90;99.90
28177;DHT22;15461;41.652;9.378;2024-03-22T00:05:05;13.90;99.90
28177;DHT22;15461;41.652;9.378;2024-03-22T00:07:31;13.90;99.90
28177;DHT22;15461;41.652;9.378;2024-03-22T00:09:56;14.00;99.90
28177;DHT22;15461;41.652;9.378;2024-03-22T00:12:22;14.00;99.90
28177;DHT22;15461;41.652;9.378;2024-03-22T00:14:48;14.00;99.90
28177;DHT22;15461;41.652;9.378;2024-03-22T00:17:17;14.00;99.90
28177;DHT22;15461;41.652;9.378;2024-03-22T00:19:42;14.00;99.90
28177;DHT22;15461;41.652;9.378;2024-03-22T00:22:09;14.00;99.90
28177;DHT22;15461;41.652;9.378;2024-03-22T00:24:35;14.00;99.90
28177;DHT22;15461;41.652;9.378;2024-03-22T00:27:00;13.90;99.90
28177;DHT22;15461;41.652;9.378;2024-03-22T00:29:26;13.90;99.90
28177;DHT22;15461;41.652;9.378;2024-03-22T00:31:52;13.90;99.90
28177;DHT22;15461;41.652;9.378;2024-03-22T00:34:18;13.80;99.90
28177;DHT22;15461;41.652;9.378;2024-03-22T00:36:45;13.80;99.90
28177;DHT22;15461;41.652;9.378;2024-03-22T00:39:11;13.80;99.90
28177;DHT22;15461;41.652;9.378;2024-03-22T00:41:38;13.80;99.90
28177;DHT22;15461;41.652;9.378;2024-03-22T00:44:04;13.80;99.90
28177;DHT22;15461;41.652;9.378;2024-03-22T00:46:30;13.80;99.90
28177;DHT22;15461;41.652;9.378;2024-03-22T00:48:56;13.90;99.90
28177;DHT22;15461;41.652;9.378;2024-03-22T00:51:25;13.80;99.90
28177;DHT22;15461;41.652;9.378;2024-03-22T00:53:51;13.80;99.90
28177;DHT22;15461;41.652;9.378;2024-03-22T00:56:16;13.80;99.90
28177;DHT22;15461;41.652;9.378;2024-03-22T00:58:42;13.80;99.90
28177;DHT22;15461;41.652;9.378;2024-03-22T01:01:08;13.90;99.90
28177;DHT22;15461;41.652;9.378;2024-03-22T01:03:34;13.80;99.90
28177;DHT22;15461;41.652;9.378;2024-03-22T01:05:59;13.80;99.90
28177;DHT22;15461;41.652;9.378;2024-03-22T01:08:25;13.90;99.90
28177;DHT22;15461;41.652;9.378;2024-03-22T01:10:51;13.90;99.90
28177;DHT22;15461;41.652;9.378;2024-03-22T01:13:17;13.90;99.90
28177;DHT22;15461;41.652;9.378;2024-03-22T01:15:43;13.90;99.90
28177;DHT22;15461;41.652;9.378;2024-03-22T01:18:09;13.90;99.90
28177;DHT22;15461;41.652;9.378;2024-03-22T01:20:35;13.90;99.90
28177;DHT22;15461;41.652;9.378;2024-03-22T01:23:01;13.90;99.90
28177;DHT22;15461;41.652;9.378;2024-03-22T01:25:27;13.90;99.90
28177;DHT22;15461;41.652;9.378;2024-03-22T01:27:53;13.90;99.90
28177;DHT22;15461;41.652;9.378;2024-03-22T01:30:19;13.90;99.90
28177;DHT22;15461;41.652;9.378;2024-03-22T01:32:45;13.90;99.90
28177;DHT22;15461;41.652;9.378;2024-03-22T01:35:10;13.90;99.90
28177;DHT22;15461;41.652;9.378;2024-03-22T01:37:36;14.00;99.90
28177;DHT22;15461;41.652;9.378;2024-03-22T01:40:03;14.00;99.90
28177;DHT22;15461;41.652;9.378;2024-03-22T01:42:30;13.90;99.90
28177;DHT22;15461;41.652;9.378;2024-03-22T01:44:56;14.00;99.90
28177;DHT22;15461;41.652;9.378;2024-03-22T01:47:22;14.00;99.90
28177;DHT22;15461;41.652;9.378;2024-03-22T01:49:49;14.00;99.90
28177;DHT22;15461;41.652;9.378;2024-03-22T01:52:16;14.00;99.90
28177;DHT22;15461;41.652;9.378;2024-03-22T01:54:42;13.90;99.90
28177;DHT22;15461;41.652;9.378;2024-03-22T01:57:08;13.90;99.90
28177;DHT22;15461;41.652;9.378;2024-03-22T01:59:34;13.90;99.90
28177;DHT22;15461;41.652;9.378;2024-03-22T02:02:00;13.90;99.90
28177;DHT22;15461;41.652;9.378;2024-03-22T02:04:26;13.90;99.90
28177;DHT22;15461;41.652;9.378;2024-03-22T02:06:51;13.80;99.90
28177;DHT22;15461;41.652;9.378;2024-03-22T02:09:17;13.80;99.90
28177;DHT22;15461;41.652;9.378;2024-03-22T02:11:44;13.90;99.90
28177;DHT22;15461;41.652;9.378;2024-03-22T02:14:10;13.90;99.90
28177;DHT22;15461;41.652;9.378;2024-03-22T02:16:36;13.90;99.90
28177;DHT22;15461;41.652;9.378;2024-03-22T02:19:02;14.00;99.90
28177;DHT22;15461;41.652;9.378;2024-03-22T02:21:27;14.00;99.90
28177;DHT22;15461;41.652;9.378;2024-03-22T02:23:53;14.00;99.90
28177;DHT22;15461;41.652;9.378;2024-03-22T02:26:19;14.10;99.90
28177;DHT22;15461;41.652;9.378;2024-03-22T02:28:44;14.10;99.90
28177;DHT22;15461;41.652;9.378;2024-03-22T02:31:10;14.10;99.90
28177;DHT22;15461;41.652;9.378;2024-03-22T02:33:36;14.10;99.90
28177;DHT22;15461;41.652;9.378;2024-03-22T02:36:02;14.10;99.90
28177;DHT22;15461;41.652;9.378;2024-03-22T02:38:28;14.10;99.90
28177;DHT22;15461;41.652;9.378;2024-03-22T02:40:53;14.10;99.90
28177;DHT22;15461;41.652;9.378;2024-03-22T02:43:19;14.10;99.90
28177;DHT22;15461;41.652;9.378;2024-03-22T02:45:47;14.10;99.90
28177;DHT22;15461;41.652;9.378;2024-03-22T02:48:13;14.10;99.90
28177;DHT22;15461;41.652;9.378;2024-03-22T02:50:39;14.10;99.90
28177;DHT22;15461;41.652;9.378;2024-03-22T02:53:05;14.10;99.90
28177;DHT22;15461;41.652;9.378;2024-03-22T02:55:37;14.10;99.90
28177;DHT22;15461;41.652;9.378;2024-03-22T02:58:03;14.10;99.90
28177;DHT22;15461;41.652;9.378;2024-03-22T03:00:29;14.00;99.90
28177;DHT22;15461;41.652;9.378;2024-03-22T03:02:55;14.00;99.90
28177;DHT22;15461;41.652;9.378;2024-03-22T03:05:21;14.00;99.90
28177;DHT22;15461;41.652;9.378;2024-03-22T03:07:49;14.10;99.90
28177;DHT22;15461;41.652;9.378;2024-03-22T03:10:16;14.10;99.90
28177;DHT22;15461;41.652;9.378;2024-03-22T03:12:42;14.20;99.90
28177;DHT22;15461;41.652;9.378;2024-03-22T03:15:08;14.20;99.90
28177;DHT22;15461;41.652;9.378;2024-03-22T03:17:34;14.20;99.90
28177;DHT22;15461;41.652;9.378;2024-03-22T03:19:59;14.30;99.90
28177;DHT22;15461;41.652;9.378;2024-03-22T03:22:25;14.40;99.90
28177;DHT22;15461;41.652;9.378;2024-03-22T03:24:51;14.40;99.90
28177;DHT22;15461;41.652;9.378;2024-03-22T03:27:17;14.40;99.90
28177;DHT22;15461;41.652;9.378;2024-03-22T03:29:42;14.40;99.90
28177;DHT22;15461;41.652;9.378;2024-03-22T03:32:08;14.50;99.90
28177;DHT22;15461;41.652;9.378;2024-03-22T03:34:34;14.40;99.90
28177;DHT22;15461;41.652;9.378;2024-03-22T03:37:00;14.40;99.90
28177;DHT22;15461;41.652;9.378;2024-03-22T03:39:27;14.40;99.90
28177;DHT22;15461;41.652;9.378;2024-03-22T03:41:55;14.40;99.90
28177;DHT22;15461;41.652;9.378;2024-03-22T03:44:20;14.40;99.90
28177;DHT22;15461;41.652;9.378;2024-03-22T03:46:46;14.40;99.90
28177;DHT22;15461;41.652;9.378;2024-03-22T03:49:12;14.50;99.90
28177;DHT22;15461;41.652;9.378;2024-03-22T03:51:38;14.40;99.90
28177;DHT22;15461;41.652;9.378;2024-03-22T03:54:03;14.40;99.90
28177;DHT22;15461;41.652;9.378;2024-03-22T03:56:29;14.30;99.90
28177;DHT22;15461;41.652;9.378;2024-03-22T03:58:55;14.30;99.90
28177;DHT22;15461;41.652;9.378;2024-03-22T04:01:21;14.20;99.90
28177;DHT22;15461;41.652;9.378;2024-03-22T04:03:48;14.20;99.90
28177;DHT22;15461;41.652;9.378;2024-03-22T04:06:14;14.10;99.90
28177;DHT22;15461;41.652;9.378;2024-03-22T04:08:40;14.10;99.90
28177;DHT22;15461;41.652;9.378;2024-03-22T04:11:06;14.10;99.90
28177;DHT22;15461;41.652;9.378;2024-03-22T04:13:32;14.10;99.90
28177;DHT22;15461;41.652;9.378;2024-03-22T04:15:59;14.00;99.90
28177;DHT22;15461;41.652;9.378;2024-03-22T04:18:25;14.00;99.90
28177;DHT22;15461;41.652;9.378;2024-03-22T04:20:57;14.00;99.90
28177;DHT22;15461;41.652;9.378;2024-03-22T04:23:24;14.00;99.90
28177;DHT22;15461;41.652;9.378;2024-03-22T04:25:57;13.90;99.90
28177;DHT22;15461;41.652;9.378;2024-03-22T04:28:25;13.90;99.90
28177;DHT22;15461;41.652;9.378;2024-03-22T04:31:01;13.90;99.90
28177;DHT22;15461;41.652;9.378;2024-03-22T04:33:28;13.90;99.90
28177;DHT22;15461;41.652;9.378;2024-03-22T04:35:55;13.90;99.90
28177;DHT22;15461;41.652;9.378;2024-03-22T04:38:22;14.00;99.90
28177;DHT22;15461;41.652;9.378;2024-03-22T04:40:48;14.00;99.90
28177;DHT22;15461;41.652;9.378;2024-03-22T04:43:14;14.00;99.90
28177;DHT22;15461;41.652;9.378;2024-03-22T04:45:42;14.00;99.90
28177;DHT22;15461;41.652;9.378;2024-03-22T04:48:09;14.00;99.90
28177;DHT22;15461;41.652;9.378;2024-03-22T04:50:35;14.00;99.90
28177;DHT22;15461;41.652;9.378;2024-03-22T04:53:01;13.90;99.90
28177;DHT22;15461;41.652;9.378;2024-03-22T04:55:27;13.90;99.90
28177;DHT22;15461;41.652;9.378;2024-03-22T04:57:53;13.90;99.90
28177;DHT22;15461;41.652;9.378;2024-03-22T05:00:19;13.90;99.90
28177;DHT22;15461;41.652;9.378;2024-03-22T05:02:45;13.90;99.90
28177;DHT22;15461;41.652;9.378;2024-03-22T05:05:11;13.90;99.90
28177;DHT22;15461;41.652;9.378;2024-03-22T05:07:37;13.90;99.90
28177;DHT22;15461;41.652;9.378;2024-03-22T05:10:03;13.90;99.90
28177;DHT22;15461;41.652;9.378;2024-03-22T05:12:29;13.80;99.90
28177;DHT22;15461;41.652;9.378;2024-03-22T05:14:55;13.80;99.90
28177;DHT22;15461;41.652;9.378;2024-03-22T05:17:21;13.70;99.90
28177;DHT22;15461;41.652;9.378;2024-03-22T05:19:47;13.60;99.90
28177;DHT22;15461;41.652;9.378;2024-03-22T05:22:12;13.50;99.90
28177;DHT22;15461;41.652;9.378;2024-03-22T05:24:38;13.40;99.90
28177;DHT22;15461;41.652;9.378;2024-03-22T05:27:04;13.30;99.90
28177;DHT22;15461;41.652;9.378;2024-03-22T05:29:30;13.20;99.90
28177;DHT22;15461;41.652;9.378;2024-03-22T05:31:56;13.10;99.90
28177;DHT22;15461;41.652;9.378;2024-03-22T05:34:22;13.00;99.90
28177;DHT22;15461;41.652;9.378;2024-03-22T05:36:48;12.90;99.90
28177;DHT22;15461;41.652;9.378;2024-03-22T05:39:14;12.80;99.90
28177;DHT22;15461;41.652;9.378;2024-03-22T05:41:40;12.70;99.90
28177;DHT22;15461;41.652;9.378;2024-03-22T05:44:07;12.70;99.90
28177;DHT22;15461;41.652;9.378;2024-03-22T05:46:32;12.60;99.90
28177;DHT22;15461;41.652;9.378;2024-03-22T05:48:58;12.60;99.90
28177;DHT22;15461;41.652;9.378;2024-03-22T05:51:25;12.50;99.90
28177;DHT22;15461;41.652;9.378;2024-03-22T05:53:51;12.50;99.90
28177;DHT22;15461;41.652;9.378;2024-03-22T05:56:16;12.40;99.90
28177;DHT22;15461;41.652;9.378;2024-03-22T05:58:42;12.40;99.90
28177;DHT22;15461;41.652;9.378;2024-03-22T06:01:08;12.40;99.90
28177;DHT22;15461;41.652;9.378;2024-03-22T06:03:34;12.40;99.90
28177;DHT22;15461;41.652;9.378;2024-03-22T06:06:00;12.40;99.90
28177;DHT22;15461;41.652;9.378;2024-03-22T06:08:26;12.50;99.90
28177;DHT22;15461;41.652;9.378;2024-03-22T06:10:54;12.50;99.90
28177;DHT22;15461;41.652;9.378;2024-03-22T06:13:20;12.50;99.90
28177;DHT22;15461;41.652;9.378;2024-03-22T06:15:48;12.60;99.90
28177;DHT22;15461;41.652;9.378;2024-03-22T06:18:14;12.60;99.90
28177;DHT22;15461;41.652;9.378;2024-03-22T06:20:40;12.70;99.90
28177;DHT22;15461;41.652;9.378;2024-03-22T06:23:10;12.80;99.90
28177;DHT22;15461;41.652;9.378;2024-03-22T06:25:36;12.90;99.90
28177;DHT22;15461;41.652;9.378;2024-03-22T06:28:02;13.10;99.90
28177;DHT22;15461;41.652;9.378;2024-03-22T06:30:28;13.30;99.90
28177;DHT22;15461;41.652;9.378;2024-03-22T06:32:54;13.50;99.90
28177;DHT22;15461;41.652;9.378;2024-03-22T06:35:22;13.70;99.90
28177;DHT22;15461;41.652;9.378;2024-03-22T06:37:48;13.80;99.90
28177;DHT22;15461;41.652;9.378;2024-03-22T06:40:14;13.90;99.90
28177;DHT22;15461;41.652;9.378;2024-03-22T06:42:40;14.00;99.90
28177;DHT22;15461;41.652;9.378;2024-03-22T06:45:07;14.10;99.90
28177;DHT22;15461;41.652;9.378;2024-03-22T06:47:33;14.30;99.90
28177;DHT22;15461;41.652;9.378;2024-03-22T06:49:58;14.40;99.90
28177;DHT22;15461;41.652;9.378;2024-03-22T06:52:24;14.50;99.90
28177;DHT22;15461;41.652;9.378;2024-03-22T06:54:50;14.70;99.90
28177;DHT22;15461;41.652;9.378;2024-03-22T06:57:17;14.90;99.90
28177;DHT22;15461;41.652;9.378;2024-03-22T06:59:43;15.00;99.90
28177;DHT22;15461;41.652;9.378;2024-03-22T07:02:09;15.10;99.90
28177;DHT22;15461;41.652;9.378;2024-03-22T07:04:35;15.20;99.90
28177;DHT22;15461;41.652;9.378;2024-03-22T07:07:01;15.30;99.90
28177;DHT22;15461;41.652;9.378;2024-03-22T07:09:27;15.40;99.90
28177;DHT22;15461;41.652;9.378;2024-03-22T07:11:55;15.60;99.90
28177;DHT22;15461;41.652;9.378;2024-03-22T07:14:21;15.70;99.90
28177;DHT22;15461;41.652;9.378;2024-03-22T07:16:50;15.80;99.90
28177;DHT22;15461;41.652;9.378;2024-03-22T07:19:16;15.90;99.90
28177;DHT22;15461;41.652;9.378;2024-03-22T07:21:41;16.00;99.90
28177;DHT22;15461;41.652;9.378;2024-03-22T07:24:07;16.20;99.90
28177;DHT22;15461;41.652;9.378;2024-03-22T07:26:33;16.30;99.90
28177;DHT22;15461;41.652;9.378;2024-03-22T07:28:59;16.30;99.90
28177;DHT22;15461;41.652;9.378;2024-03-22T07:31:24;16.40;99.90
28177;DHT22;15461;41.652;9.378;2024-03-22T07:33:50;16.50;99.90
28177;DHT22;15461;41.652;9.378;2024-03-22T07:36:18;16.70;99.90
28177;DHT22;15461;41.652;9.378;2024-03-22T07:38:45;16.70;99.90
28177;DHT22;15461;41.652;9.378;2024-03-22T07:41:11;16.70;99.90
28177;DHT22;15461;41.652;9.378;2024-03-22T07:43:36;16.70;99.90
28177;DHT22;15461;41.652;9.378;2024-03-22T07:46:02;16.80;99.90
28177;DHT22;15461;41.652;9.378;2024-03-22T07:48:28;16.90;99.90
28177;DHT22;15461;41.652;9.378;2024-03-22T07:51:03;17.00;99.90
28177;DHT22;15461;41.652;9.378;2024-03-22T07:53:29;17.20;99.90
28177;DHT22;15461;41.652;9.378;2024-03-22T07:55:55;17.20;99.90
28177;DHT22;15461;41.652;9.378;2024-03-22T07:58:20;17.30;99.90
28177;DHT22;15461;41.652;9.378;2024-03-22T08:00:46;17.20;99.90
28177;DHT22;15461;41.652;9.378;2024-03-22T08:03:14;17.20;99.90
28177;DHT22;15461;41.652;9.378;2024-03-22T08:05:41;17.00;99.90
28177;DHT22;15461;41.652;9.378;2024-03-22T08:08:06;17.00;99.90
28177;DHT22;15461;41.652;9.378;2024-03-22T08:10:32;17.10;99.90
28177;DHT22;15461;41.652;9.378;2024-03-22T08:12:59;17.20;99.90
28177;DHT22;15461;41.652;9.378;2024-03-22T08:15:26;17.40;99.90
28177;DHT22;15461;41.652;9.378;2024-03-22T08:17:52;17.50;99.90
28177;DHT22;15461;41.652;9.378;2024-03-22T08:20:17;17.40;99.90
28177;DHT22;15461;41.652;9.378;2024-03-22T08:22:43;17.40;99.90
28177;DHT22;15461;41.652;9.378;2024-03-22T08:25:09;17.30;99.90
28177;DHT22;15461;41.652;9.378;2024-03-22T08:27:35;17.30;99.90
28177;DHT22;15461;41.652;9.378;2024-03-22T08:30:01;17.40;99.90
28177;DHT22;15461;41.652;9.378;2024-03-22T08:32:28;17.30;99.90
28177;DHT22;15461;41.652;9.378;2024-03-22T08:34:54;17.30;99.90
28177;DHT22;15461;41.652;9.378;2024-03-22T08:37:20;17.50;99.90
28177;DHT22;15461;41.652;9.378;2024-03-22T08:39:46;17.50;99.90
28177;DHT22;15461;41.652;9.378;2024-03-22T08:42:11;17.40;99.90
28177;DHT22;15461;41.652;9.378;2024-03-22T08:44:37;17.50;99.90
28177;DHT22;15461;41.652;9.378;2024-03-22T08:47:03;17.60;99.90
28177;DHT22;15461;41.652;9.378;2024-03-22T08:49:29;17.50;99.90
28177;DHT22;15461;41.652;9.378;2024-03-22T08:51:55;17.50;99.90
28177;DHT22;15461;41.652;9.378;2024-03-22T08:54:21;17.60;99.90
28177;DHT22;15461;41.652;9.378;2024-03-22T08:56:47;17.60;99.90
28177;DHT22;15461;41.652;9.378;2024-03-22T08:59:12;17.80;99.90
28177;DHT22;15461;41.652;9.378;2024-03-22T09:01:38;18.00;99.90
28177;DHT22;15461;41.652;9.378;2024-03-22T09:04:04;18.00;99.90
28177;DHT22;15461;41.652;9.378;2024-03-22T09:06:30;18.10;99.90
28177;DHT22;15461;41.652;9.378;2024-03-22T09:08:56;18.00;99.90
28177;DHT22;15461;41.652;9.378;2024-03-22T09:11:24;17.90;99.90
28177;DHT22;15461;41.652;9.378;2024-03-22T09:13:53;17.80;99.90
28177;DHT22;15461;41.652;9.378;2024-03-22T09:16:20;17.70;99.90
28177;DHT22;15461;41.652;9.378;2024-03-22T09:18:46;17.80;99.90
28177;DHT22;15461;41.652;9.378;2024-03-22T09:21:12;18.10;99.90
28177;DHT22;15461;41.652;9.378;2024-03-22T09:23:37;18.20;99.90
28177;DHT22;15461;41.652;9.378;2024-03-22T09:26:03;18.30;99.90
28177;DHT22;15461;41.652;9.378;2024-03-22T09:28:29;18.30;99.90
28177;DHT22;15461;41.652;9.378;2024-03-22T09:30:55;18.20;99.90
28177;DHT22;15461;41.652;9.378;2024-03-22T09:33:22;18.20;99.90
28177;DHT22;15461;41.652;9.378;2024-03-22T09:35:47;18.20;99.90
28177;DHT22;15461;41.652;9.378;2024-03-22T09:38:13;18.10;99.90
28177;DHT22;15461;41.652;9.378;2024-03-22T09:40:41;18.00;99.90
28177;DHT22;15461;41.652;9.378;2024-03-22T09:43:07;18.00;99.90
28177;DHT22;15461;41.652;9.378;2024-03-22T09:45:33;18.00;99.90
28177;DHT22;15461;41.652;9.378;2024-03-22T09:47:59;18.10;99.90
28177;DHT22;15461;41.652;9.378;2024-03-22T09:50:26;18.10;99.90
28177;DHT22;15461;41.652;9.378;2024-03-22T09:52:52;18.20;99.90
28177;DHT22;15461;41.652;9.378;2024-03-22T09:55:23;18.20;99.90
28177;DHT22;15461;41.652;9.378;2024-03-22T09:57:49;18.30;99.90
28177;DHT22;15461;41.652;9.378;2024-03-22T10:00:21;18.30;99.90
28177;DHT22;15461;41.652;9.378;2024-03-22T10:02:51;18.50;99.90
28177;DHT22;15461;41.652;9.378;2024-03-22T10:05:19;18.50;99.90
28177;DHT22;15461;41.652;9.378;2024-03-22T10:07:45;18.40;99.90
28177;DHT22;15461;41.652;9.378;2024-03-22T10:10:11;18.40;99.90
28177;DHT22;15461;41.652;9.378;2024-03-22T10:12:37;18.40;99.90
28177;DHT22;15461;41.652;9.378;2024-03-22T10:15:05;18.40;99.90
28177;DHT22;15461;41.652;9.378;2024-03-22T10:17:34;18.40;99.90
28177;DHT22;15461;41.652;9.378;2024-03-22T10:20:00;18.60;99.90
28177;DHT22;15461;41.652;9.378;2024-03-22T10:22:26;18.50;99.90
28177;DHT22;15461;41.652;9.378;2024-03-22T10:24:53;18.50;99.90
28177;DHT22;15461;41.652;9.378;2024-03-22T10:27:19;18.40;99.90
28177;DHT22;15461;41.652;9.378;2024-03-22T10:29:46;18.30;99.90
28177;DHT22;15461;41.652;9.378;2024-03-22T10:32:13;18.30;99.90
28177;DHT22;15461;41.652;9.378;2024-03-22T10:34:40;18.50;99.90
28177;DHT22;15461;41.652;9.378;2024-03-22T10:37:08;18.70;99.90
28177;DHT22;15461;41.652;9.378;2024-03-22T10:39:37;18.80;99.90
28177;DHT22;15461;41.652;9.378;2024-03-22T10:42:02;18.90;99.90
28177;DHT22;15461;41.652;9.378;2024-03-22T10:44:31;18.90;99.90
28177;DHT22;15461;41.652;9.378;2024-03-22T10:47:00;18.80;99.90
28177;DHT22;15461;41.652;9.378;2024-03-22T10:49:28;18.70;99.90
28177;DHT22;15461;41.652;9.378;2024-03-22T10:51:59;18.60;99.90
28177;DHT22;15461;41.652;9.378;2024-03-22T10:54:29;18.40;99.90
28177;DHT22;15461;41.652;9.378;2024-03-22T10:56:56;18.40;99.90
28177;DHT22;15461;41.652;9.378;2024-03-22T10:59:23;18.30;99.90
28177;DHT22;15461;41.652;9.378;2024-03-22T11:01:49;18.30;99.90
28177;DHT22;15461;41.652;9.378;2024-03-22T11:04:17;18.30;99.90
28177;DHT22;15461;41.652;9.378;2024-03-22T11:06:51;18.40;99.90
28177;DHT22;15461;41.652;9.378;2024-03-22T11:09:25;18.60;99.90
28177;DHT22;15461;41.652;9.378;2024-03-22T11:11:55;18.60;99.90
28177;DHT22;15461;41.652;9.378;2024-03-22T11:14:22;18.80;99.90
28177;DHT22;15461;41.652;9.378;2024-03-22T11:16:51;18.80;99.90
28177;DHT22;15461;41.652;9.378;2024-03-22T11:19:17;18.90;99.90
28177;DHT22;15461;41.652;9.378;2024-03-22T11:21:42;18.80;99.90
28177;DHT22;15461;41.652;9.378;2024-03-22T11:24:08;18.60;99.90
28177;DHT22;15461;41.652;9.378;2024-03-22T11:26:35;18.30;99.90
28177;DHT22;15461;41.652;9.378;2024-03-22T11:29:01;18.40;99.90
28177;DHT22;15461;41.652;9.378;2024-03-22T11:31:27;18.30;99.90
28177;DHT22;15461;41.652;9.378;2024-03-22T11:33:56;18.20;99.90
28177;DHT22;15461;41.652;9.378;2024-03-22T11:36:25;18.00;99.90
28177;DHT22;15461;41.652;9.378;2024-03-22T11:38:50;18.10;99.90
28177;DHT22;15461;41.652;9.378;2024-03-22T11:41:25;18.20;99.90
28177;DHT22;15461;41.652;9.378;2024-03-22T11:43:53;18.50;99.90
28177;DHT22;15461;41.652;9.378;2024-03-22T11:46:19;18.60;99.90
28177;DHT22;15461;41.652;9.378;2024-03-22T11:48:51;18.70;99.90
28177;DHT22;15461;41.652;9.378;2024-03-22T11:51:17;18.70;99.90
28177;DHT22;15461;41.652;9.378;2024-03-22T11:53:49;18.90;99.90
28177;DHT22;15461;41.652;9.378;2024-03-22T11:56:18;18.90;99.90
28177;DHT22;15461;41.652;9.378;2024-03-22T11:58:46;18.70;99.90
28177;DHT22;15461;41.652;9.378;2024-03-22T12:01:13;18.40;99.90
28177;DHT22;15461;41.652;9.378;2024-03-22T12:03:39;18.50;99.90
28177;DHT22;15461;41.652;9.378;2024-03-22T12:06:06;18.60;99.90
28177;DHT22;15461;41.652;9.378;2024-03-22T12:08:32;18.70;99.90
28177;DHT22;15461;41.652;9.378;2024-03-22T12:10:57;18.90;99.90
28177;DHT22;15461;41.652;9.378;2024-03-22T12:13:24;18.70;99.90
28177;DHT22;15461;41.652;9.378;2024-03-22T12:15:49;18.80;99.90
28177;DHT22;15461;41.652;9.378;2024-03-22T12:18:15;18.90;99.90
28177;DHT22;15461;41.652;9.378;2024-03-22T12:20:42;19.00;99.90
28177;DHT22;15461;41.652;9.378;2024-03-22T12:23:07;19.10;99.90
28177;DHT22;15461;41.652;9.378;2024-03-22T12:25:33;18.90;99.90
28177;DHT22;15461;41.652;9.378;2024-03-22T12:27:59;18.80;99.90
28177;DHT22;15461;41.652;9.378;2024-03-22T12:30:25;19.00;99.90
28177;DHT22;15461;41.652;9.378;2024-03-22T12:32:51;19.10;99.90
28177;DHT22;15461;41.652;9.378;2024-03-22T12:35:17;19.20;99.90
28177;DHT22;15461;41.652;9.378;2024-03-22T12:37:43;19.30;99.90
28177;DHT22;15461;41.652;9.378;2024-03-22T12:40:09;19.10;99.90
28177;DHT22;15461;41.652;9.378;2024-03-22T12:42:35;18.90;99.90
28177;DHT22;15461;41.652;9.378;2024-03-22T12:45:01;18.80;99.90
28177;DHT22;15461;41.652;9.378;2024-03-22T12:47:27;18.90;99.90
28177;DHT22;15461;41.652;9.378;2024-03-22T12:49:53;19.00;99.90
28177;DHT22;15461;41.652;9.378;2024-03-22T12:52:19;19.00;99.90
28177;DHT22;15461;41.652;9.378;2024-03-22T12:54:45;19.10;99.90
28177;DHT22;15461;41.652;9.378;2024-03-22T12:57:11;18.90;99.90
28177;DHT22;15461;41.652;9.378;2024-03-22T12:59:37;18.90;99.90
28177;DHT22;15461;41.652;9.378;2024-03-22T13:02:03;19.00;99.90
28177;DHT22;15461;41.652;9.378;2024-03-22T13:04:30;18.80;99.90
28177;DHT22;15461;41.652;9.378;2024-03-22T13:06:56;18.90;99.90
28177;DHT22;15461;41.652;9.378;2024-03-22T13:09:21;18.80;99.90
28177;DHT22;15461;41.652;9.378;2024-03-22T13:11:48;18.90;99.90
28177;DHT22;15461;41.652;9.378;2024-03-22T13:14:14;18.90;99.90
28177;DHT22;15461;41.652;9.378;2024-03-22T13:16:41;19.00;99.90
28177;DHT22;15461;41.652;9.378;2024-03-22T13:19:06;19.00;99.90
28177;DHT22;15461;41.652;9.378;2024-03-22T13:21:38;19.00;99.90
28177;DHT22;15461;41.652;9.378;2024-03-22T13:24:04;18.70;99.90
28177;DHT22;15461;41.652;9.378;2024-03-22T13:26:29;18.60;99.90
28177;DHT22;15461;41.652;9.378;2024-03-22T13:28:55;18.50;99.90
28177;DHT22;15461;41.652;9.378;2024-03-22T13:31:21;18.40;99.90
28177;DHT22;15461;41.652;9.378;2024-03-22T13:33:47;18.60;99.90
28177;DHT22;15461;41.652;9.378;2024-03-22T13:36:13;18.80;99.90
28177;DHT22;15461;41.652;9.378;2024-03-22T13:38:39;18.90;99.90
28177;DHT22;15461;41.652;9.378;2024-03-22T13:41:05;18.80;99.90
28177;DHT22;15461;41.652;9.378;2024-03-22T13:43:31;18.80;99.90
28177;DHT22;15461;41.652;9.378;2024-03-22T13:45:57;18.70;99.90
28177;DHT22;15461;41.652;9.378;2024-03-22T13:48:24;18.70;99.90
28177;DHT22;15461;41.652;9.378;2024-03-22T13:50:51;18.70;99.90
28177;DHT22;15461;41.652;9.378;2024-03-22T13:53:17;18.90;99.90
28177;DHT22;15461;41.652;9.378;2024-03-22T13:55:43;19.10;99.90
28177;DHT22;15461;41.652;9.378;2024-03-22T13:58:09;19.30;99.90
28177;DHT22;15461;41.652;9.378;2024-03-22T14:00:34;19.00;99.90
28177;DHT22;15461;41.652;9.378;2024-03-22T14:03:01;18.70;99.90
28177;DHT22;15461;41.652;9.378;2024-03-22T14:05:27;18.50;99.90
28177;DHT22;15461;41.652;9.378;2024-03-22T14:07:53;18.30;99.90
28177;DHT22;15461;41.652;9.378;2024-03-22T14:10:19;18.40;99.90
28177;DHT22;15461;41.652;9.378;2024-03-22T14:12:46;18.40;99.90
28177;DHT22;15461;41.652;9.378;2024-03-22T14:15:13;18.40;99.90
28177;DHT22;15461;41.652;9.378;2024-03-22T14:17:38;18.30;99.90
28177;DHT22;15461;41.652;9.378;2024-03-22T14:20:05;18.30;99.90
28177;DHT22;15461;41.652;9.378;2024-03-22T14:22:40;18.60;99.90
28177;DHT22;15461;41.652;9.378;2024-03-22T14:25:06;18.50;99.90
28177;DHT22;15461;41.652;9.378;2024-03-22T14:27:33;18.60;99.90
28177;DHT22;15461;41.652;9.378;2024-03-22T14:29:59;18.50;99.90
28177;DHT22;15461;41.652;9.378;2024-03-22T14:32:25;18.50;99.90
28177;DHT22;15461;41.652;9.378;2024-03-22T14:34:52;18.40;99.90
28177;DHT22;15461;41.652;9.378;2024-03-22T14:37:18;18.50;99.90
28177;DHT22;15461;41.652;9.378;2024-03-22T14:39:44;18.70;99.90
28177;DHT22;15461;41.652;9.378;2024-03-22T14:42:09;18.80;99.90
28177;DHT22;15461;41.652;9.378;2024-03-22T14:44:35;18.70;99.90
28177;DHT22;15461;41.652;9.378;2024-03-22T14:47:01;18.80;99.90
28177;DHT22;15461;41.652;9.378;2024-03-22T14:49:26;18.70;99.90
28177;DHT22;15461;41.652;9.378;2024-03-22T14:51:52;18.70;99.90
28177;DHT22;15461;41.652;9.378;2024-03-22T14:54:19;18.60;99.90
28177;DHT22;15461;41.652;9.378;2024-03-22T14:56:44;18.50;99.90
28177;DHT22;15461;41.652;9.378;2024-03-22T14:59:10;18.60;99.90
28177;DHT22;15461;41.652;9.378;2024-03-22T15:01:36;18.40;99.90
28177;DHT22;15461;41.652;9.378;2024-03-22T15:04:01;18.30;99.90
28177;DHT22;15461;41.652;9.378;2024-03-22T15:06:27;18.30;99.90
28177;DHT22;15461;41.652;9.378;2024-03-22T15:08:55;18.00;99.90
28177;DHT22;15461;41.652;9.378;2024-03-22T15:11:20;17.80;99.90
28177;DHT22;15461;41.652;9.378;2024-03-22T15:13:47;17.80;99.90
28177;DHT22;15461;41.652;9.378;2024-03-22T15:16:12;17.80;99.90
28177;DHT22;15461;41.652;9.378;2024-03-22T15:18:39;17.80;99.90
28177;DHT22;15461;41.652;9.378;2024-03-22T15:21:07;17.70;99.90
28177;DHT22;15461;41.652;9.378;2024-03-22T15:23:34;17.60;99.90